Map

Track Data

SID SEASON NUMBER BASIN SUBBASIN NAME ISO_TIME NATURE LAT LON WMO_WIND WMO_PRES WMO_AGENCY TRACK_TYPE DIST2LAND LANDFALL IFLAG USA_AGENCY USA_ATCF_ID USA_LAT USA_LON USA_RECORD USA_STATUS USA_WIND USA_PRES USA_SSHS USA_R34_NE USA_R34_SE USA_R34_SW USA_R34_NW USA_R50_NE USA_R50_SE USA_R50_SW USA_R50_NW USA_R64_NE USA_R64_SE USA_R64_SW USA_R64_NW USA_POCI USA_ROCI USA_RMW USA_EYE TOKYO_LAT TOKYO_LON TOKYO_GRADE TOKYO_WIND TOKYO_PRES TOKYO_R50_DIR TOKYO_R50_LONG TOKYO_R50_SHORT TOKYO_R30_DIR TOKYO_R30_LONG TOKYO_R30_SHORT TOKYO_LAND CMA_LAT CMA_LON CMA_CAT CMA_WIND CMA_PRES HKO_LAT HKO_LON HKO_CAT HKO_WIND HKO_PRES NEWDELHI_LAT NEWDELHI_LON NEWDELHI_GRADE NEWDELHI_WIND NEWDELHI_PRES NEWDELHI_CI NEWDELHI_DP NEWDELHI_POCI REUNION_LAT REUNION_LON REUNION_TYPE REUNION_WIND REUNION_PRES REUNION_TNUM REUNION_CI REUNION_RMW REUNION_R34_NE REUNION_R34_SE REUNION_R34_SW REUNION_R34_NW REUNION_R50_NE REUNION_R50_SE REUNION_R50_SW REUNION_R50_NW REUNION_R64_NE REUNION_R64_SE REUNION_R64_SW REUNION_R64_NW BOM_LAT BOM_LON BOM_TYPE BOM_WIND BOM_PRES BOM_TNUM BOM_CI BOM_RMW BOM_R34_NE BOM_R34_SE BOM_R34_SW BOM_R34_NW BOM_R50_NE BOM_R50_SE BOM_R50_SW BOM_R50_NW BOM_R64_NE BOM_R64_SE BOM_R64_SW BOM_R64_NW BOM_ROCI BOM_POCI BOM_EYE BOM_POS_METHOD BOM_PRES_METHOD NADI_LAT NADI_LON NADI_CAT NADI_WIND NADI_PRES WELLINGTON_LAT WELLINGTON_LON WELLINGTON_WIND WELLINGTON_PRES DS824_LAT DS824_LON DS824_STAGE DS824_WIND DS824_PRES TD9636_LAT TD9636_LON TD9636_STAGE TD9636_WIND TD9636_PRES TD9635_LAT TD9635_LON TD9635_WIND TD9635_PRES TD9635_ROCI NEUMANN_LAT NEUMANN_LON NEUMANN_CLASS NEUMANN_WIND NEUMANN_PRES MLC_LAT MLC_LON MLC_CLASS MLC_WIND MLC_PRES USA_GUST BOM_GUST BOM_GUST_PER REUNION_GUST REUNION_GUST_PER USA_SEAHGT USA_SEARAD_NE USA_SEARAD_SE USA_SEARAD_SW USA_SEARAD_NW STORM_SPEED STORM_DIR
1985249N13265 1985 82 EP MM SANDRA 1985-09-05 18:00:00 TS 12.7000 -95.5000 25 hurdat_epa main 344 305 O_________O___ hurdat_epa EP181985 12.7000 -95.5000 TD 25 -1 12.7000 -95.5000 1 25 16 283
1985249N13265 1985 82 EP MM SANDRA 1985-09-05 21:00:00 TS 12.8723 -96.2852 main 304 291 P_________P___ EP181985 12.8781 -96.2871 TD 25 -1 12.8550 -96.2795 1 25 15 282
1985249N13265 1985 82 EP MM SANDRA 1985-09-06 00:00:00 TS 13.0000 -97.0000 25 hurdat_epa main 294 294 O_________O___ hurdat_epa EP181985 13.0000 -97.0000 TD 25 -1 13.0000 -97.0000 1 25 13 279
1985249N13265 1985 82 EP MM SANDRA 1985-09-06 03:00:00 TS 13.0643 -97.5951 main 299 299 P_________P___ EP181985 13.0422 -97.5878 TD 25 -1 13.1306 -97.6170 1 25 11 277
1985249N13265 1985 82 EP MM SANDRA 1985-09-06 06:00:00 TS 13.1381 -98.1123 25 hurdat_epa main 323 311 O_________P___ hurdat_epa EP181985 13.1000 -98.1000 TD 25 -1 13.2523 -98.1493 1 25 10 284
1985249N13265 1985 82 EP MM SANDRA 1985-09-06 09:00:00 TS 13.3069 -98.6136 main 314 306 P_________P___ EP181985 13.2849 -98.6074 TD 25 -1 13.3729 -98.6320 1 25 10 291
1985249N13265 1985 82 EP MM SANDRA 1985-09-06 12:00:00 TS 13.5000 -99.1000 25 hurdat_epa main 312 311 O_________O___ hurdat_epa EP181985 13.5000 -99.1000 TD 25 -1 13.5000 -99.1000 1 25 10 290
1985249N13265 1985 82 EP MM SANDRA 1985-09-06 15:00:00 TS 13.6537 -99.6019 main 310 310 P_________P___ EP181985 13.6574 -99.6001 TD 27 -1 13.6424 -99.6073 1 27 10 287
1985249N13265 1985 82 EP MM SANDRA 1985-09-06 18:00:00 TS 13.7980 -100.102 30 hurdat_epa main 322 319 O_________P___ hurdat_epa EP181985 13.8000 -100.100 TD 30 -1 13.7920 -100.108 1 30 10 287
1985249N13265 1985 82 EP MM SANDRA 1985-09-06 21:00:00 TS 13.9432 -100.601 main 327 317 P_________P___ EP181985 13.9424 -100.600 TD 32 -1 13.9456 -100.604 1 32 10 287
1985249N13265 1985 82 EP MM SANDRA 1985-09-07 00:00:00 TS 14.1000 -101.100 35 hurdat_epa main 327 322 O_________O___ hurdat_epa EP181985 14.1000 -101.100 TS 35 0 14.1000 -101.100 2 35 10 290
1985249N13265 1985 82 EP MM SANDRA 1985-09-07 03:00:00 TS 14.2919 -101.598 main 334 327 P_________P___ EP181985 14.3074 -101.600 TS 37 0 14.2455 -101.592 2 37 10 291
1985249N13265 1985 82 EP MM SANDRA 1985-09-07 06:00:00 TS 14.4730 -102.096 40 hurdat_epa main 331 331 O_________P___ hurdat_epa EP181985 14.5000 -102.100 TS 40 0 14.3919 -102.085 2 40 10 287
1985249N13265 1985 82 EP MM SANDRA 1985-09-07 09:00:00 TS 14.5855 -102.597 main 342 342 P_________P___ EP181985 14.5999 -102.600 TS 42 0 14.5423 -102.586 2 42 10 283
1985249N13265 1985 82 EP MM SANDRA 1985-09-07 12:00:00 TS 14.7000 -103.100 45 hurdat_epa main 361 359 O_________O___ hurdat_epa EP181985 14.7000 -103.100 TS 45 0 14.7000 -103.100 2 45 10 288
1985249N13265 1985 82 EP MM SANDRA 1985-09-07 15:00:00 TS 14.8931 -103.598 main 362 355 P_________P___ EP181985 14.8923 -103.585 TS 45 0 14.8957 -103.636 2 46 11 292
1985249N13265 1985 82 EP MM SANDRA 1985-09-07 18:00:00 TS 15.0985 -104.121 45 hurdat_epa main 359 355 O_________P___ hurdat_epa EP181985 15.1000 -104.100 TS 45 0 15.0941 -104.186 2 47 11 290
1985249N13265 1985 82 EP MM SANDRA 1985-09-07 21:00:00 TS 15.2720 -104.705 main 359 359 P_________P___ EP181985 15.2725 -104.692 TS 47 0 15.2704 -104.743 2 48 12 285
1985249N13265 1985 82 EP MM SANDRA 1985-09-08 00:00:00 TS 15.4000 -105.300 50 hurdat_epa main 376 376 O_________O___ hurdat_epa EP181985 15.4000 -105.300 TS 50 0 15.4000 -105.300 2 50 11 280
1985249N13265 1985 82 EP MM SANDRA 1985-09-08 03:00:00 TS 15.4563 -105.841 main 397 397 P_________P___ EP181985 15.4572 -105.843 TS 57 0 15.4538 -105.834 2 57 11 275
1985249N13265 1985 82 EP MM SANDRA 1985-09-08 06:00:00 TS 15.5000 -106.400 65 hurdat_epa main 439 439 O_________O___ hurdat_epa EP181985 15.5000 -106.400 HU 65 1 15.5000 -106.400 3 65 12 277
1985249N13265 1985 82 EP MM SANDRA 1985-09-08 09:00:00 TS 15.6074 -107.056 main 470 470 P_________P___ EP181985 15.6076 -107.057 HU 72 1 15.6067 -107.053 3 72 13 279
1985249N13265 1985 82 EP MM SANDRA 1985-09-08 12:00:00 TS 15.7000 -107.700 80 hurdat_epa main 498 498 O_________O___ hurdat_epa EP181985 15.7000 -107.700 HU 80 1 15.7000 -107.700 4 80 11 276
1985249N13265 1985 82 EP MM SANDRA 1985-09-08 15:00:00 TS 15.7219 -108.239 main 532 532 P_________P___ EP181985 15.7298 -108.238 HU 90 2 15.6980 -108.243 4 87 10 269
1985249N13265 1985 82 EP MM SANDRA 1985-09-08 18:00:00 TS 15.6850 -108.702 100 hurdat_epa main 569 569 O_________P___ hurdat_epa EP181985 15.7000 -108.700 HU 100 3 15.6402 -108.710 4 95 9 261
1985249N13265 1985 82 EP MM SANDRA 1985-09-08 21:00:00 TS 15.5905 -109.122 main 608 608 P_________P___ EP181985 15.5999 -109.123 HU 105 3 15.5623 -109.122 4 102 8 256
1985249N13265 1985 82 EP MM SANDRA 1985-09-09 00:00:00 TS 15.5000 -109.500 110 hurdat_epa main 646 646 O_________O___ hurdat_epa EP181985 15.5000 -109.500 HU 110 3 15.5000 -109.500 4 110 7 261
1985249N13265 1985 82 EP MM SANDRA 1985-09-09 03:00:00 TS 15.4787 -109.863 main 677 677 P_________P___ EP181985 15.4774 -109.857 HU 110 3 15.4827 -109.879 4 106 7 270
1985249N13265 1985 82 EP MM SANDRA 1985-09-09 06:00:00 TS 15.4974 -110.208 110 hurdat_epa main 700 700 O_________P___ hurdat_epa EP181985 15.5000 -110.200 HU 110 3 15.4895 -110.230 4 102 7 274
1985249N13265 1985 82 EP MM SANDRA 1985-09-09 09:00:00 TS 15.5272 -110.543 main 724 724 P_________P___ EP181985 15.5274 -110.535 HU 102 3 15.5265 -110.566 4 98 7 279
1985249N13265 1985 82 EP MM SANDRA 1985-09-09 12:00:00 TS 15.6000 -110.900 95 hurdat_epa main 749 749 O_________O___ hurdat_epa EP181985 15.6000 -110.900 HU 95 2 15.6000 -110.900 4 95 8 285
1985249N13265 1985 82 EP MM SANDRA 1985-09-09 15:00:00 TS 15.7278 -111.336 main 777 777 P_________P___ EP181985 15.7352 -111.365 HU 95 2 15.7058 -111.250 4 95 9 289
1985249N13265 1985 82 EP MM SANDRA 1985-09-09 18:00:00 TS 15.8868 -111.750 95 hurdat_epa main 805 797 O_________P___ hurdat_epa EP181985 15.9000 -111.800 HU 95 2 15.8473 -111.600 4 95 7 295
1985249N13265 1985 82 EP MM SANDRA 1985-09-09 21:00:00 TS 16.0355 -112.036 main 799 784 P_________P___ EP181985 16.0423 -112.065 HU 95 2 16.0152 -111.950 4 95 6 301
1985249N13265 1985 82 EP MM SANDRA 1985-09-10 00:00:00 TS 16.2000 -112.300 95 hurdat_epa main 787 776 O_________O___ hurdat_epa EP181985 16.2000 -112.300 HU 95 2 16.2000 -112.300 4 95 7 301
1985249N13265 1985 82 EP MM SANDRA 1985-09-10 03:00:00 TS 16.3888 -112.644 main 776 767 P_________P___ EP181985 16.3925 -112.635 HU 92 2 16.3775 -112.670 4 93 8 300
1985249N13265 1985 82 EP MM SANDRA 1985-09-10 06:00:00 TS 16.5925 -113.009 90 hurdat_epa main 771 764 O_________P___ hurdat_epa EP181985 16.6000 -113.000 HU 90 2 16.5701 -113.038 4 92 8 300
1985249N13265 1985 82 EP MM SANDRA 1985-09-10 09:00:00 TS 16.7831 -113.365 main 769 759 P_________P___ EP181985 16.7850 -113.358 HU 90 2 16.7776 -113.386 4 91 8 302
1985249N13265 1985 82 EP MM SANDRA 1985-09-10 12:00:00 TS 17.0000 -113.700 90 hurdat_epa main 764 752 O_________O___ hurdat_epa EP181985 17.0000 -113.700 HU 90 2 17.0000 -113.700 4 90 8 309
1985249N13265 1985 82 EP MM SANDRA 1985-09-10 15:00:00 TS 17.2818 -114.015 main 752 743 P_________P___ EP181985 17.3000 -114.030 HU 90 2 17.2272 -113.969 4 90 8 316
1985249N13265 1985 82 EP MM SANDRA 1985-09-10 18:00:00 TS 17.5674 -114.276 90 hurdat_epa main 743 731 O_________P___ hurdat_epa EP181985 17.6000 -114.300 HU 90 2 17.4697 -114.203 4 90 7 320
1985249N13265 1985 82 EP MM SANDRA 1985-09-10 21:00:00 TS 17.7818 -114.451 main 738 727 P_________P___ EP181985 17.7999 -114.465 HU 90 2 17.7273 -114.410 4 90 5 324
1985249N13265 1985 82 EP MM SANDRA 1985-09-11 00:00:00 TS 18.0000 -114.600 90 hurdat_epa main 727 716 O_________O___ hurdat_epa EP181985 18.0000 -114.600 HU 90 2 18.0000 -114.600 4 90 6 327
1985249N13265 1985 82 EP MM SANDRA 1985-09-11 03:00:00 TS 18.2872 -114.797 main 716 707 P_________P___ EP181985 18.2850 -114.800 HU 90 2 18.2936 -114.790 4 90 7 328
1985249N13265 1985 82 EP MM SANDRA 1985-09-11 06:00:00 TS 18.6000 -114.991 90 hurdat_epa main 707 693 O_________P___ hurdat_epa EP181985 18.6000 -115.000 HU 90 2 18.5998 -114.965 4 90 7 331
1985249N13265 1985 82 EP MM SANDRA 1985-09-11 09:00:00 TS 18.9071 -115.152 main 701 686 P_________P___ EP181985 18.9075 -115.158 HU 90 2 18.9061 -115.133 4 90 7 334
1985249N13265 1985 82 EP MM SANDRA 1985-09-11 12:00:00 TS 19.2000 -115.300 90 hurdat_epa main 688 680 O_________O___ hurdat_epa EP181985 19.2000 -115.300 HU 90 2 19.2000 -115.300 4 90 6 333
1985249N13265 1985 82 EP MM SANDRA 1985-09-11 15:00:00 TS 19.4602 -115.446 main 670 664 P_________P___ EP181985 19.4575 -115.443 HU 90 2 19.4682 -115.455 4 90 6 331
1985249N13265 1985 82 EP MM SANDRA 1985-09-11 18:00:00 TS 19.7055 -115.603 90 hurdat_epa main 664 651 O_________P___ hurdat_epa EP181985 19.7000 -115.600 HU 90 2 19.7222 -115.613 4 90 6 327
1985249N13265 1985 82 EP MM SANDRA 1985-09-11 21:00:00 TS 19.9481 -115.786 main 657 643 P_________P___ EP181985 19.9425 -115.785 HU 90 2 19.9650 -115.790 4 90 6 323
1985249N13265 1985 82 EP MM SANDRA 1985-09-12 00:00:00 TS 20.2000 -116.000 90 hurdat_epa main 643 630 O_________O___ hurdat_epa EP181985 20.2000 -116.000 HU 90 2 20.2000 -116.000 4 90 7 323
1985249N13265 1985 82 EP MM SANDRA 1985-09-12 03:00:00 TS 20.4983 -116.234 main 630 627 P_________P___ EP181985 20.5149 -116.227 HU 90 2 20.4484 -116.252 4 90 7 320
1985249N13265 1985 82 EP MM SANDRA 1985-09-12 06:00:00 TS 20.7718 -116.510 90 hurdat_epa main 627 626 O_________P___ hurdat_epa EP181985 20.8000 -116.500 HU 90 2 20.6874 -116.540 4 90 7 309
1985249N13265 1985 82 EP MM SANDRA 1985-09-12 09:00:00 TS 20.9563 -116.835 main 634 634 P_________P___ EP181985 20.9725 -116.828 HU 90 2 20.9077 -116.858 4 90 7 297
1985249N13265 1985 82 EP MM SANDRA 1985-09-12 12:00:00 TS 21.1000 -117.200 90 hurdat_epa main 657 657 O_________O___ hurdat_epa EP181985 21.1000 -117.200 HU 90 2 21.1000 -117.200 4 90 8 293
1985249N13265 1985 82 EP MM SANDRA 1985-09-12 15:00:00 TS 21.2565 -117.582 main 676 676 P_________P___ EP181985 21.2575 -117.600 HU 82 1 21.2533 -117.530 4 86 8 292
1985249N13265 1985 82 EP MM SANDRA 1985-09-12 18:00:00 TS 21.3948 -117.971 75 hurdat_epa main 704 704 O_________P___ hurdat_epa EP181985 21.4000 -118.000 HU 75 1 21.3792 -117.883 4 82 7 289
1985249N13265 1985 82 EP MM SANDRA 1985-09-12 21:00:00 TS 21.4975 -118.325 main 724 724 P_________P___ EP181985 21.4998 -118.343 HU 75 1 21.4906 -118.270 4 78 7 287
1985249N13265 1985 82 EP MM SANDRA 1985-09-13 00:00:00 TS 21.6000 -118.700 75 hurdat_epa main 754 754 O_________O___ hurdat_epa EP181985 21.6000 -118.700 HU 75 1 21.6000 -118.700 4 75 8 288
1985249N13265 1985 82 EP MM SANDRA 1985-09-13 03:00:00 TS 21.7466 -119.129 main 776 774 P_________P___ EP181985 21.7498 -119.112 HU 70 1 21.7372 -119.178 4 72 9 289
1985249N13265 1985 82 EP MM SANDRA 1985-09-13 06:00:00 TS 21.8931 -119.624 65 hurdat_epa main 791 791 O_________P___ hurdat_epa EP181985 21.9000 -119.600 HU 65 1 21.8725 -119.697 4 70 10 285
1985249N13265 1985 82 EP MM SANDRA 1985-09-13 09:00:00 TS 22.0104 -120.194 main 824 824 P_________P___ EP181985 22.0150 -120.178 HU 65 1 21.9964 -120.243 4 67 11 281
1985249N13265 1985 82 EP MM SANDRA 1985-09-13 12:00:00 TS 22.1000 -120.800 65 hurdat_epa main 856 856 O_________O___ hurdat_epa EP181985 22.1000 -120.800 HU 65 1 22.1000 -120.800 4 65 11 278
1985249N13265 1985 82 EP MM SANDRA 1985-09-13 15:00:00 TS 22.1661 -121.403 main 890 890 P_________P___ EP181985 22.1574 -121.415 HU 65 1 22.1920 -121.367 4 63 11 276
1985249N13265 1985 82 EP MM SANDRA 1985-09-13 18:00:00 TS 22.2151 -121.984 65 hurdat_epa main 935 935 O_________P___ hurdat_epa EP181985 22.2000 -122.000 HU 65 1 22.2602 -121.937 4 62 10 276
1985249N13265 1985 82 EP MM SANDRA 1985-09-13 21:00:00 TS 22.2732 -122.520 main 966 966 P_________P___ EP181985 22.2648 -122.530 HU 62 0 22.2983 -122.489 4 61 9 275
1985249N13265 1985 82 EP MM SANDRA 1985-09-14 00:00:00 TS 22.3000 -123.000 60 hurdat_epa main 1006 1006 O_________O___ hurdat_epa EP181985 22.3000 -123.000 TS 60 0 22.3000 -123.000 2 60 8 270
1985249N13265 1985 82 EP MM SANDRA 1985-09-14 03:00:00 TS 22.2763 -123.422 main 1038 1038 P_________P___ EP181985 22.2723 -123.415 TS 62 0 22.2885 -123.443 2 61 8 263
1985249N13265 1985 82 EP MM SANDRA 1985-09-14 06:00:00 TS 22.2097 -123.811 65 hurdat_epa main 1078 1078 O_________P___ hurdat_epa EP181985 22.2000 -123.800 HU 65 1 22.2388 -123.845 2 62 7 258
1985249N13265 1985 82 EP MM SANDRA 1985-09-14 09:00:00 TS 22.1280 -124.206 main 1117 1117 P_________P___ EP181985 22.1224 -124.200 HU 65 1 22.1449 -124.224 2 63 8 254
1985249N13265 1985 82 EP MM SANDRA 1985-09-14 12:00:00 TS 22.0000 -124.600 65 hurdat_epa main 1157 1157 O_________O___ hurdat_epa EP181985 22.0000 -124.600 HU 65 1 22.0000 -124.600 4 65 8 247
1985249N13265 1985 82 EP MM SANDRA 1985-09-14 15:00:00 TS 21.8213 -124.993 main 1204 1204 P_________P___ EP181985 21.8299 -125.000 HU 62 0 21.7954 -124.972 4 62 8 240
1985249N13265 1985 82 EP MM SANDRA 1985-09-14 18:00:00 TS 21.5859 -125.387 60 hurdat_epa main 1251 1251 O_________P___ hurdat_epa EP181985 21.6000 -125.400 TS 60 0 21.5437 -125.348 4 60 9 234
1985249N13265 1985 82 EP MM SANDRA 1985-09-14 21:00:00 TS 21.2924 -125.776 main 1304 1304 P_________P___ EP181985 21.2998 -125.785 TS 57 0 21.2702 -125.750 4 57 10 232
1985249N13265 1985 82 EP MM SANDRA 1985-09-15 00:00:00 TS 21.0000 -126.200 55 hurdat_epa main 1357 1357 O_________O___ hurdat_epa EP181985 21.0000 -126.200 TS 55 0 21.0000 -126.200 2 55 10 239
1985249N13265 1985 82 EP MM SANDRA 1985-09-15 03:00:00 TS 20.7811 -126.677 main 1412 1412 P_________P___ EP181985 20.7923 -126.662 TS 50 0 20.7476 -126.721 2 50 10 246
1985249N13265 1985 82 EP MM SANDRA 1985-09-15 06:00:00 TS 20.5763 -127.223 45 hurdat_epa main 1468 1468 O_________P___ hurdat_epa EP181985 20.6000 -127.200 TS 45 0 20.5050 -127.291 2 45 12 247
1985249N13265 1985 82 EP MM SANDRA 1985-09-15 09:00:00 TS 20.3225 -127.843 main 1538 1538 P_________P___ EP181985 20.3350 -127.828 TS 40 0 20.2849 -127.890 2 40 13 248
1985249N13265 1985 82 EP MM SANDRA 1985-09-15 12:00:00 TS 20.1000 -128.500 35 hurdat_epa main 1611 1611 O_________O___ hurdat_epa EP181985 20.1000 -128.500 TS 35 0 20.1000 -128.500 2 35 13 254
1985249N13265 1985 82 EP MM SANDRA 1985-09-15 15:00:00 TS 19.9749 -129.142 main 1669 1669 P_________P___ EP181985 19.9774 -129.165 TS 32 -1 19.9672 -129.076 2 32 12 260
1985249N13265 1985 82 EP MM SANDRA 1985-09-15 18:00:00 TS 19.8922 -129.765 30 hurdat_epa main 1736 1736 O_________P___ hurdat_epa EP181985 19.9000 -129.800 TD 30 -1 19.8687 -129.661 2 30 11 261
1985249N13265 1985 82 EP MM SANDRA 1985-09-15 21:00:00 TS 19.8017 -130.323 main 1786 1786 P_________P___ EP181985 19.8070 -130.342 TD 27 -1 19.7859 -130.266 2 27 11 260
1985249N13265 1985 82 EP MM SANDRA 1985-09-16 00:00:00 TS 19.7000 -130.900 25 hurdat_epa main 1846 1846 O_________O___ hurdat_epa EP181985 19.7000 -130.900 TD 25 -1 19.7000 -130.900 1 25 12 258
1985249N13265 1985 82 EP MM SANDRA 1985-09-16 03:00:00 TS 19.5569 -131.573 main 1914 1914 P_________P___ EP181985 19.5500 -131.578 TD 25 -1 19.5775 -131.559 1 25 13 258
1985249N13265 1985 82 EP MM SANDRA 1985-09-16 06:00:00 TS 19.4123 -132.287 25 hurdat_epa main 1988 1988 O_________P___ hurdat_epa EP181985 19.4000 -132.300 TD 25 -1 19.4490 -132.248 1 25 14 259
1985249N13265 1985 82 EP MM SANDRA 1985-09-16 09:00:00 TS 19.3050 -132.985 main 2057 2057 P_________P___ EP181985 19.2996 -132.992 TD 25 -1 19.3211 -132.962 1 25 14 261
1985249N13265 1985 82 EP MM SANDRA 1985-09-16 12:00:00 TS 19.2000 -133.700 25 hurdat_epa main 2126 2126 O_________O___ hurdat_epa EP181985 19.2000 -133.700 TD 25 -1 19.2000 -133.700 1 25 14 260
1985249N13265 1985 82 EP MM SANDRA 1985-09-16 15:00:00 TS 19.0543 -134.441 main 2140 2058 P_________P___ EP181985 19.0422 -134.435 TD 25 -1 19.0906 -134.458 1 25 15 259
1985249N13265 1985 82 EP MM SANDRA 1985-09-16 18:00:00 TS 18.9226 -135.208 25 hurdat_epa main 2058 1975 O_________P___ hurdat_epa EP181985 18.9000 -135.200 TD 25 -1 18.9902 -135.230 1 25 15 262
1985249N13265 1985 82 EP MM SANDRA 1985-09-16 21:00:00 TS 18.8448 -135.997 main 1975 1891 P_________P___ EP181985 18.8282 -135.992 TD 25 -1 18.8947 -136.013 1 25 15 265
1985249N13265 1985 82 EP MM SANDRA 1985-09-17 00:00:00 TS 18.8000 -136.800 25 hurdat_epa main 1891 O_________O___ hurdat_epa EP181985 18.8000 -136.800 TD 25 -1 18.8000 -136.800 1 25 15 267

About IBTrACS Database

This database is a web-friendly format of International Best Track Archive for Climate Stewardship (IBTrACS), a global best track data archive curated by NOAA dating back to 1842.

Updated: 2021-10-21